createdAt,value
2023-03-29T00:02:20.208Z,3.63
2023-03-29T00:05:35.282Z,3.59
2023-03-29T00:08:37.321Z,3.58
2023-03-29T00:11:52.379Z,3.43
2023-03-29T00:14:54.313Z,3.34
2023-03-29T00:18:09.239Z,3.32
2023-03-29T00:21:18.482Z,3.24
2023-03-29T00:24:26.641Z,3.22
2023-03-29T00:27:35.162Z,3.19
2023-03-29T00:30:44.258Z,3.21
2023-03-29T00:33:53.157Z,3.07
2023-03-29T00:37:03.304Z,3.05
2023-03-29T00:40:13.168Z,2.96
2023-03-29T00:43:21.760Z,2.81
2023-03-29T00:46:37.768Z,2.87
2023-03-29T00:49:39.963Z,2.94
2023-03-29T00:53:01.479Z,2.82
2023-03-29T00:56:20.152Z,2.90
2023-03-29T00:59:31.389Z,2.87
2023-03-29T01:02:40.500Z,2.83
2023-03-29T01:06:00.174Z,2.79
2023-03-29T01:09:05.677Z,2.82
2023-03-29T01:12:26.227Z,2.86
2023-03-29T01:15:29.219Z,2.82
2023-03-29T01:18:44.228Z,2.78
2023-03-29T01:21:59.223Z,2.86
2023-03-29T01:25:44.218Z,2.79
2023-03-29T01:29:06.542Z,2.78
2023-03-29T01:32:20.929Z,2.85
2023-03-29T01:35:39.272Z,2.92
2023-03-29T01:39:04.182Z,2.84
2023-03-29T01:42:29.225Z,2.83
2023-03-29T01:45:57.968Z,2.70
2023-03-29T01:49:13.212Z,2.66
2023-03-29T01:52:36.205Z,2.52
2023-03-29T01:55:52.565Z,2.35
2023-03-29T01:59:11.230Z,2.37
2023-03-29T02:02:23.303Z,2.34
2023-03-29T02:05:37.192Z,2.27
2023-03-29T02:08:53.278Z,2.27
2023-03-29T02:11:59.561Z,2.20
2023-03-29T02:15:20.465Z,2.37
2023-03-29T02:18:22.681Z,2.32
2023-03-29T02:21:47.223Z,2.33
2023-03-29T02:24:54.278Z,2.42
2023-03-29T02:28:11.292Z,2.27
2023-03-29T02:31:20.550Z,2.26
2023-03-29T02:34:42.970Z,2.24
2023-03-29T02:37:55.747Z,2.22
2023-03-29T02:41:05.321Z,2.25
2023-03-29T02:44:18.643Z,2.26
2023-03-29T02:47:34.270Z,2.21
2023-03-29T02:50:56.287Z,2.20
2023-03-29T02:54:06.149Z,2.24
2023-03-29T02:57:29.193Z,2.32
2023-03-29T03:00:30.818Z,2.23
2023-03-29T03:03:45.383Z,2.22
2023-03-29T03:06:47.677Z,2.35
2023-03-29T03:10:02.506Z,2.30
2023-03-29T03:13:10.315Z,2.25
2023-03-29T03:16:25.328Z,2.25
2023-03-29T03:19:27.696Z,2.10
2023-03-29T03:22:43.681Z,2.01
2023-03-29T03:25:45.598Z,1.99
2023-03-29T03:29:01.753Z,1.93
2023-03-29T03:32:16.249Z,1.93
2023-03-29T03:35:24.259Z,2.08
2023-03-29T03:38:40.254Z,2.02
2023-03-29T03:41:50.266Z,2.07
2023-03-29T03:44:58.897Z,1.96
2023-03-29T03:48:07.491Z,2.14
2023-03-29T03:51:15.860Z,2.08
2023-03-29T03:54:27.283Z,2.12
2023-03-29T03:57:49.239Z,2.12
2023-03-29T04:00:58.273Z,2.35
2023-03-29T04:04:13.338Z,2.28
2023-03-29T04:07:24.662Z,2.27
2023-03-29T04:10:33.288Z,2.23
2023-03-29T04:14:07.278Z,2.21
2023-03-29T04:17:15.334Z,2.07
2023-03-29T04:20:30.293Z,2.05
2023-03-29T04:23:32.277Z,2.05
2023-03-29T04:26:47.267Z,1.92
2023-03-29T04:29:51.437Z,1.87
2023-03-29T04:33:06.350Z,1.81
2023-03-29T04:36:15.292Z,1.98
2023-03-29T04:42:47.277Z,2.18
2023-03-29T04:46:02.304Z,2.12
2023-03-29T04:49:11.564Z,2.15
2023-03-29T04:52:27.253Z,2.05
2023-03-29T04:55:35.283Z,2.20
2023-03-29T04:58:57.308Z,2.47
2023-03-29T05:02:12.275Z,2.61
2023-03-29T05:05:20.249Z,2.62
2023-03-29T05:11:58.733Z,2.85
2023-03-29T05:15:14.250Z,2.84
2023-03-29T05:18:31.250Z,2.74
2023-03-29T05:21:46.388Z,2.82
2023-03-29T05:24:48.083Z,2.69
2023-03-29T05:28:02.545Z,2.89
2023-03-29T05:31:17.389Z,2.90
2023-03-29T05:34:22.098Z,2.86
2023-03-29T05:37:36.820Z,3.01
2023-03-29T05:40:40.009Z,3.08
2023-03-29T05:43:55.077Z,2.63
2023-03-29T05:47:03.320Z,3.22
2023-03-29T05:50:12.417Z,3.23
2023-03-29T05:53:21.337Z,3.49
2023-03-29T05:56:43.372Z,3.56
2023-03-29T05:59:51.277Z,3.52
2023-03-29T06:03:18.001Z,3.53
2023-03-29T06:06:22.774Z,3.37
2023-03-29T06:09:37.312Z,3.51
2023-03-29T06:12:46.310Z,3.67
2023-03-29T06:16:01.343Z,3.48
2023-03-29T06:19:16.306Z,3.68
2023-03-29T06:22:24.303Z,3.56
2023-03-29T06:25:50.392Z,3.76
2023-03-29T06:28:52.477Z,3.86
2023-03-29T06:32:07.304Z,4.00
2023-03-29T06:35:16.844Z,4.14
2023-03-29T06:38:25.836Z,3.94
2023-03-29T06:41:41.620Z,3.77
2023-03-29T06:44:43.341Z,4.13
2023-03-29T06:47:58.377Z,4.24
2023-03-29T06:51:00.669Z,4.16
2023-03-29T06:54:19.356Z,4.21
2023-03-29T06:57:27.681Z,4.52
2023-03-29T07:03:59.064Z,4.54
2023-03-29T07:07:15.367Z,5.35
2023-03-29T07:10:30.271Z,6.35
2023-03-29T07:13:41.534Z,7.49
2023-03-29T07:16:55.995Z,7.82
2023-03-29T07:20:20.667Z,6.89
2023-03-29T07:23:32.836Z,6.19
2023-03-29T07:27:00.275Z,6.90
2023-03-29T07:30:23.095Z,6.11
2023-03-29T07:33:28.285Z,6.50
2023-03-29T07:36:45.363Z,6.25
2023-03-29T07:39:47.037Z,6.43
2023-03-29T07:43:18.349Z,6.21
2023-03-29T07:46:20.185Z,6.19
2023-03-29T07:49:38.324Z,6.26
2023-03-29T07:52:47.366Z,6.14
2023-03-29T07:56:02.434Z,6.38
2023-03-29T07:59:17.468Z,6.41
2023-03-29T08:05:48.378Z,6.19
2023-03-29T08:09:16.561Z,6.21
2023-03-29T08:12:29.279Z,6.40
2023-03-29T08:15:45.396Z,6.21
2023-03-29T08:18:47.113Z,6.54
2023-03-29T08:22:03.526Z,6.54
2023-03-29T08:25:14.801Z,6.52
2023-03-29T08:28:22.952Z,6.36
2023-03-29T08:31:31.399Z,7.08
2023-03-29T08:34:47.448Z,7.79
2023-03-29T08:37:49.148Z,7.98
2023-03-29T08:41:03.738Z,7.87
2023-03-29T08:44:28.577Z,7.71
2023-03-29T08:48:00.620Z,7.58
2023-03-29T08:51:15.998Z,7.63
2023-03-29T08:54:49.790Z,8.26
2023-03-29T08:58:12.605Z,7.61
2023-03-29T09:01:29.382Z,7.54
2023-03-29T09:04:47.428Z,7.33
2023-03-29T09:07:49.784Z,7.56
2023-03-29T09:11:21.376Z,7.21
2023-03-29T09:14:47.780Z,7.46
2023-03-29T09:18:14.412Z,7.59
2023-03-29T09:21:43.710Z,7.46
2023-03-29T09:25:03.448Z,7.48
2023-03-29T09:28:42.892Z,7.37
2023-03-29T09:32:02.669Z,7.93
2023-03-29T09:35:26.388Z,8.12
2023-03-29T09:38:37.440Z,8.45
2023-03-29T09:45:26.357Z,9.61
2023-03-29T09:48:46.407Z,9.58
2023-03-29T09:51:50.119Z,8.60
2023-03-29T09:55:10.397Z,8.72
2023-03-29T09:58:34.419Z,9.19
2023-03-29T10:01:38.622Z,9.04
2023-03-29T10:04:59.419Z,8.50
2023-03-29T10:08:22.030Z,8.83
2023-03-29T10:11:44.149Z,9.30
2023-03-29T10:14:56.097Z,9.74
2023-03-29T10:18:12.464Z,10.10
2023-03-29T10:21:28.418Z,10.10
2023-03-29T10:28:11.421Z,10.34
2023-03-29T10:31:28.826Z,9.67
2023-03-29T10:34:37.171Z,9.59
2023-03-29T10:37:52.653Z,9.57
2023-03-29T10:41:19.550Z,9.67
2023-03-29T10:44:32.801Z,9.72
2023-03-29T10:47:51.481Z,9.82
2023-03-29T10:50:59.804Z,9.88
2023-03-29T10:54:23.380Z,10.20
2023-03-29T11:02:33.246Z,11.03
2023-03-29T11:06:12.052Z,11.03
2023-03-29T11:09:53.045Z,11.16
2023-03-29T11:13:24.036Z,10.82
2023-03-29T11:17:04.133Z,11.24
2023-03-29T11:20:47.724Z,12.31
2023-03-29T11:24:25.654Z,15.75
2023-03-29T11:27:49.335Z,19.59
2023-03-29T11:31:32.070Z,21.65
2023-03-29T11:35:11.165Z,19.00
2023-03-29T11:38:29.915Z,20.25
2023-03-29T11:41:42.299Z,21.17
2023-03-29T11:45:01.366Z,21.01
2023-03-29T11:48:23.382Z,20.82
2023-03-29T11:51:44.082Z,23.05
2023-03-29T11:55:00.635Z,23.69
2023-03-29T11:58:26.233Z,19.31
2023-03-29T12:01:46.106Z,21.72
2023-03-29T12:05:06.132Z,22.83
2023-03-29T12:08:21.094Z,22.29
2023-03-29T12:11:38.028Z,23.23
2023-03-29T12:14:59.061Z,25.03
2023-03-29T12:18:39.636Z,23.24
2023-03-29T12:21:53.072Z,22.59
2023-03-29T12:25:11.503Z,21.48
2023-03-29T12:28:36.087Z,19.85
2023-03-29T12:32:27.129Z,18.17
2023-03-29T12:36:13.234Z,17.85
2023-03-29T12:39:17.732Z,16.94
2023-03-29T12:42:53.077Z,16.03
2023-03-29T12:46:02.015Z,14.06
2023-03-29T12:49:34.199Z,13.36
2023-03-29T12:52:43.107Z,13.01
2023-03-29T12:56:08.469Z,12.64
2023-03-29T12:59:49.173Z,12.37
2023-03-29T13:03:40.563Z,12.48
2023-03-29T13:06:56.645Z,12.45
2023-03-29T13:10:16.265Z,12.06
2023-03-29T13:13:36.873Z,12.28
2023-03-29T13:20:50.745Z,11.91
2023-03-29T13:24:24.174Z,11.82
2023-03-29T13:28:04.835Z,11.84
2023-03-29T13:31:55.134Z,11.97
2023-03-29T13:35:28.344Z,11.65
2023-03-29T13:38:38.100Z,11.55
2023-03-29T13:42:19.334Z,11.53
2023-03-29T13:45:33.327Z,11.70
2023-03-29T13:52:43.378Z,11.89
2023-03-29T13:55:53.862Z,11.58
2023-03-29T13:59:13.998Z,11.61
2023-03-29T14:02:54.176Z,11.72
2023-03-29T14:06:14.602Z,11.92
2023-03-29T14:09:31.557Z,11.85
2023-03-29T14:12:44.299Z,11.62
2023-03-29T14:16:05.415Z,11.41
2023-03-29T14:19:20.358Z,11.56
2023-03-29T14:22:41.668Z,11.55
2023-03-29T14:25:43.521Z,11.68
2023-03-29T14:29:02.438Z,12.53
2023-03-29T14:32:20.173Z,12.32
2023-03-29T14:35:32.329Z,12.32
2023-03-29T14:38:47.721Z,12.12
2023-03-29T14:41:53.637Z,11.99
2023-03-29T14:45:12.157Z,11.85
2023-03-29T14:48:21.249Z,11.59
2023-03-29T14:51:36.144Z,11.45
2023-03-29T14:54:55.129Z,11.57
2023-03-29T14:57:59.904Z,11.53
2023-03-29T15:01:24.618Z,11.32
2023-03-29T15:04:34.972Z,11.41
2023-03-29T15:07:50.150Z,11.38
2023-03-29T15:11:00.199Z,11.31
2023-03-29T15:14:38.420Z,11.35
2023-03-29T15:17:52.275Z,11.05
2023-03-29T15:21:08.185Z,10.95
2023-03-29T15:24:29.782Z,10.73
2023-03-29T15:27:47.184Z,10.93
2023-03-29T15:31:07.372Z,10.97
2023-03-29T15:34:30.477Z,10.99
2023-03-29T15:37:45.146Z,10.94
2023-03-29T15:40:47.903Z,11.05
2023-03-29T15:44:05.206Z,10.97
2023-03-29T15:47:10.456Z,11.04
2023-03-29T15:50:25.171Z,11.06
2023-03-29T15:53:26.942Z,10.96
2023-03-29T15:56:46.210Z,10.89
2023-03-29T15:59:47.949Z,10.73
2023-03-29T16:03:09.292Z,10.75
2023-03-29T16:06:20.177Z,10.69
2023-03-29T16:09:28.850Z,10.37
2023-03-29T16:12:37.186Z,10.56
2023-03-29T16:15:46.240Z,10.55
2023-03-29T16:18:55.194Z,10.51
2023-03-29T16:22:10.209Z,10.51
2023-03-29T16:25:21.267Z,10.48
2023-03-29T16:28:29.677Z,10.49
2023-03-29T16:31:38.244Z,10.54
2023-03-29T16:34:53.234Z,10.45
2023-03-29T16:37:55.211Z,10.39
2023-03-29T16:41:13.519Z,10.16
2023-03-29T16:44:23.752Z,10.17
2023-03-29T16:47:33.222Z,10.03
2023-03-29T16:50:42.085Z,10.00
2023-03-29T16:53:51.306Z,10.13
2023-03-29T16:57:06.932Z,10.11
2023-03-29T17:00:18.129Z,10.12
2023-03-29T17:03:33.190Z,10.15
2023-03-29T17:06:41.814Z,10.18
2023-03-29T17:09:50.206Z,10.18
2023-03-29T17:12:59.549Z,10.31
2023-03-29T17:16:08.248Z,10.18
2023-03-29T17:19:16.761Z,10.16
2023-03-29T17:22:25.233Z,10.10
2023-03-29T17:25:40.254Z,10.10
2023-03-29T17:28:55.943Z,9.97
2023-03-29T17:32:06.258Z,10.02
2023-03-29T17:35:14.897Z,10.03
2023-03-29T17:38:23.276Z,10.06
2023-03-29T17:41:38.238Z,9.99
2023-03-29T17:44:53.265Z,9.92
2023-03-29T17:47:54.922Z,9.90
2023-03-29T17:51:09.233Z,9.89
2023-03-29T17:54:11.042Z,9.84
2023-03-29T17:57:25.355Z,9.78
2023-03-29T18:00:33.869Z,9.88
2023-03-29T18:03:56.254Z,9.96
2023-03-29T18:07:04.698Z,9.87
2023-03-29T18:10:14.595Z,9.72
2023-03-29T18:13:29.242Z,9.73
2023-03-29T18:16:31.133Z,9.70
2023-03-29T18:19:46.196Z,9.63
2023-03-29T18:22:48.290Z,9.64
2023-03-29T18:26:07.291Z,9.67
2023-03-29T18:29:15.263Z,9.69
2023-03-29T18:32:24.538Z,9.62
2023-03-29T18:35:32.257Z,9.68
2023-03-29T18:38:41.493Z,9.59
2023-03-29T18:41:49.658Z,9.65
2023-03-29T18:45:04.288Z,9.62
2023-03-29T18:48:12.934Z,9.54
2023-03-29T18:51:21.326Z,9.56
2023-03-29T18:54:29.737Z,9.57
2023-03-29T18:57:38.245Z,9.37
2023-03-29T19:01:01.010Z,9.39
2023-03-29T19:04:15.258Z,9.48
2023-03-29T19:07:23.793Z,9.44
2023-03-29T19:10:32.328Z,9.47
2023-03-29T19:13:44.769Z,9.50
2023-03-29T19:16:53.353Z,9.53
2023-03-29T19:20:01.862Z,9.43
2023-03-29T19:23:11.294Z,9.42
2023-03-29T19:26:20.070Z,9.45
2023-03-29T19:29:29.349Z,9.31
2023-03-29T19:32:44.281Z,9.25
2023-03-29T19:35:46.611Z,9.25
2023-03-29T19:39:01.287Z,9.27
2023-03-29T19:42:03.057Z,9.09
2023-03-29T19:45:18.412Z,9.17
2023-03-29T19:48:22.961Z,9.03
2023-03-29T19:51:38.241Z,9.04
2023-03-29T19:54:46.517Z,9.21
2023-03-29T19:58:01.255Z,9.22
2023-03-29T20:01:16.291Z,9.23
2023-03-29T20:04:31.271Z,9.23
2023-03-29T20:07:39.778Z,9.23
2023-03-29T20:10:48.286Z,9.13
2023-03-29T20:13:57.369Z,9.08
2023-03-29T20:17:19.047Z,9.09
2023-03-29T20:20:27.432Z,9.09
2023-03-29T20:23:35.319Z,9.14
2023-03-29T20:26:50.293Z,9.23
2023-03-29T20:29:52.018Z,9.18
2023-03-29T20:33:06.561Z,9.25
2023-03-29T20:36:08.432Z,9.28
2023-03-29T20:39:25.581Z,9.35
2023-03-29T20:42:27.492Z,9.37
2023-03-29T20:45:52.119Z,9.33
2023-03-29T20:49:09.170Z,9.38
2023-03-29T20:52:24.310Z,9.36
2023-03-29T20:55:30.537Z,9.29
2023-03-29T20:58:45.594Z,9.08
2023-03-29T21:01:54.367Z,8.98
2023-03-29T21:05:16.322Z,9.06
2023-03-29T21:08:24.332Z,9.08
2023-03-29T21:11:32.877Z,9.02
2023-03-29T21:14:47.340Z,9.05
2023-03-29T21:17:56.334Z,9.00
2023-03-29T21:21:13.410Z,8.96
2023-03-29T21:24:21.310Z,8.89
2023-03-29T21:27:36.447Z,8.93
2023-03-29T21:30:38.101Z,8.98
2023-03-29T21:33:52.321Z,9.05
2023-03-29T21:36:54.337Z,9.05
2023-03-29T21:40:11.335Z,8.95
2023-03-29T21:43:20.002Z,8.98
2023-03-29T21:46:28.346Z,8.96
2023-03-29T21:49:38.017Z,8.92
2023-03-29T21:52:46.410Z,8.98
2023-03-29T21:56:01.343Z,8.95
2023-03-29T21:59:16.734Z,8.87
2023-03-29T22:02:38.495Z,8.87
2023-03-29T22:06:05.339Z,8.81
2023-03-29T22:09:13.624Z,8.80
2023-03-29T22:12:22.371Z,8.77
2023-03-29T22:15:30.423Z,8.71
2023-03-29T22:18:46.402Z,8.70
2023-03-29T22:21:55.344Z,8.73
2023-03-29T22:25:10.661Z,8.69
2023-03-29T22:28:12.319Z,8.67
2023-03-29T22:31:29.431Z,8.68
2023-03-29T22:34:31.707Z,8.61
2023-03-29T22:37:49.366Z,8.60
2023-03-29T22:40:57.330Z,8.66
2023-03-29T22:44:05.893Z,8.72
2023-03-29T22:47:14.349Z,8.57
2023-03-29T22:50:30.655Z,8.68
2023-03-29T22:53:33.314Z,8.58
2023-03-29T22:56:48.478Z,8.50
2023-03-29T22:59:50.151Z,8.49
2023-03-29T23:03:11.389Z,8.49
2023-03-29T23:06:20.378Z,8.49
2023-03-29T23:09:36.361Z,8.45
2023-03-29T23:12:51.398Z,8.35
2023-03-29T23:16:01.027Z,8.38
2023-03-29T23:19:09.396Z,8.41
2023-03-29T23:22:25.403Z,8.43
2023-03-29T23:25:27.634Z,8.46
2023-03-29T23:28:42.466Z,8.50
2023-03-29T23:31:47.445Z,8.48
2023-03-29T23:35:02.367Z,8.43
2023-03-29T23:38:11.629Z,8.49
2023-03-29T23:41:19.876Z,8.48
2023-03-29T23:44:28.370Z,8.31
2023-03-29T23:47:38.180Z,8.22
2023-03-29T23:50:46.359Z,8.30
2023-03-29T23:53:55.839Z,8.40
2023-03-29T23:57:10.438Z,8.40
